Deming, NM (88030)

7:29 PM MDT on September 30, 2016 (GMT -0600)
Deming SW. | | Change Station

Elev 4970 ft 32.27 °N, 107.76 °W | Updated 3 minutes ago

Clear
Clear
69.3 °F
Feels Like 69.3 °F
N
2.2
Wind Variable Wind from South

Today
High -- | Low -- °F
--% Chance of Precip.
Yesterday
High -- | Low -- °F
Precip. -- in
Pressure 29.97 in
Visibility 10.0 miles
Clouds Clear
Dew Point 58 °F
Humidity 66%
Rainfall 0.15 in
Snow Depth Not available.
7:04 AM 6:56 PM
New Moon, 0% visible
METAR KDMN 010053Z AUTO 17003KT 10SM CLR 23/14 A3014 RMK AO2 SLP147 T02280139
Pressure 29.97 in
Visibility 10.0 miles
Clouds Clear
Dew Point 58 °F
Humidity 66%
Rainfall 0.15 in
Snow Depth Not available.
7:04 AM 6:56 PM
New Moon, 0% visible
METAR KDMN 010053Z AUTO 17003KT 10SM CLR 23/14 A3014 RMK AO2 SLP147 T02280139

10-Day Weather Forecast

Almanac

Astronomy

Sep. 30, 2016 Rise Set
Actual Time
Civil Twilight
Nautical Twilight
Astronomical Twilight
Moon
Length of Visible Light
Length of Day
Tomorrow will be .
, % of the Moon is Illuminated

Today's Extremes

State Highs State Lows

Community

WunderPhotos

Upload Photos

1,942,829 photos uploaded!

WunderBlog® & News

Nearby

Air Quality

  Air Quality AQ Index Pollutant
Not available.

Snow Depth

Station Depth Elevation

Earthquake Activity

City Distance Mag. Time & Date
Minimum magnitude displayed is 2.5.

Coastal Water Temperatures

Place Temperature

Stations

Nearby Weather Stations

Station Location Temp. Windchill Dew Point Humidity Wind Precip. Elev Updated Type
                   

Watches & Warnings

There are currently no watches in effect.